createdAt,value
2017-11-13T00:01:08.082Z,3.15
2017-11-13T00:03:35.662Z,3.65
2017-11-13T00:06:03.197Z,4.72
2017-11-13T00:08:30.780Z,3.95
2017-11-13T00:10:58.318Z,7.30
2017-11-13T00:13:25.893Z,3.17
2017-11-13T00:15:53.434Z,4.47
2017-11-13T00:18:20.982Z,3.42
2017-11-13T00:20:48.563Z,3.35
2017-11-13T00:23:16.102Z,3.87
2017-11-13T00:25:44.449Z,4.43
2017-11-13T00:28:11.987Z,3.58
2017-11-13T00:30:39.569Z,5.25
2017-11-13T00:33:07.105Z,3.47
2017-11-13T00:35:34.677Z,6.70
2017-11-13T00:38:02.214Z,2.67
2017-11-13T00:40:29.794Z,3.22
2017-11-13T00:42:57.332Z,4.50
2017-11-13T00:45:24.906Z,2.03
2017-11-13T00:47:52.445Z,4.50
2017-11-13T00:50:20.028Z,3.95
2017-11-13T00:52:47.569Z,2.65
2017-11-13T00:55:15.147Z,5.30
2017-11-13T00:57:42.685Z,3.03
2017-11-13T01:00:10.222Z,2.87
2017-11-13T01:02:37.796Z,4.90
2017-11-13T01:05:05.342Z,3.22
2017-11-13T01:07:32.914Z,5.00
2017-11-13T01:10:00.497Z,3.65
2017-11-13T01:12:28.062Z,3.30
2017-11-13T01:14:55.598Z,4.22
2017-11-13T01:17:23.234Z,3.60
2017-11-13T01:19:50.807Z,4.57
2017-11-13T01:22:18.379Z,4.90
2017-11-13T01:24:45.923Z,4.25
2017-11-13T01:27:13.504Z,3.78
2017-11-13T01:29:41.072Z,3.97
2017-11-13T01:32:08.656Z,3.10
2017-11-13T01:34:36.189Z,3.42
2017-11-13T01:37:03.771Z,3.22
2017-11-13T01:39:31.312Z,4.47
2017-11-13T01:41:58.901Z,3.75
2017-11-13T01:44:26.446Z,4.10
2017-11-13T01:46:54.041Z,5.60
2017-11-13T01:49:22.354Z,5.35
2017-11-13T01:51:49.934Z,3.60
2017-11-13T01:54:17.469Z,4.70
2017-11-13T01:56:45.043Z,4.68
2017-11-13T01:59:12.582Z,3.10
2017-11-13T02:01:40.155Z,4.45
2017-11-13T02:04:07.724Z,3.50
2017-11-13T02:06:35.313Z,3.62
2017-11-13T02:09:03.614Z,4.47
2017-11-13T02:11:31.958Z,3.20
2017-11-13T02:13:59.494Z,3.45
2017-11-13T02:16:27.066Z,3.87
2017-11-13T02:18:54.600Z,5.50
2017-11-13T02:21:22.176Z,5.40
2017-11-13T02:23:49.715Z,5.15
2017-11-13T02:26:17.291Z,5.10
2017-11-13T02:28:44.834Z,5.37
2017-11-13T02:31:12.416Z,4.97
2017-11-13T02:33:39.980Z,4.25
2017-11-13T02:36:07.549Z,6.87
2017-11-13T02:38:35.199Z,4.50
2017-11-13T02:41:02.747Z,6.03
2017-11-13T02:43:30.327Z,5.30
2017-11-13T02:45:57.862Z,4.47
2017-11-13T02:48:25.440Z,7.10
2017-11-13T02:50:53.022Z,4.90
2017-11-13T02:53:20.559Z,4.37
2017-11-13T02:55:48.102Z,6.00
2017-11-13T02:58:15.680Z,7.55
2017-11-13T03:00:43.251Z,5.87
2017-11-13T03:03:10.790Z,5.35
2017-11-13T03:05:38.361Z,7.68
2017-11-13T03:08:05.894Z,4.97
2017-11-13T03:10:33.469Z,5.43
2017-11-13T03:13:01.005Z,5.20
2017-11-13T03:15:28.594Z,6.22
2017-11-13T03:17:56.130Z,5.95
2017-11-13T03:20:23.702Z,7.47
2017-11-13T03:22:51.240Z,7.95
2017-11-13T03:25:19.573Z,8.25
2017-11-13T03:27:47.110Z,7.28
2017-11-13T03:30:14.660Z,6.95
2017-11-13T03:32:42.237Z,9.07
2017-11-13T03:35:09.770Z,7.22
2017-11-13T03:37:37.347Z,7.55
2017-11-13T03:40:04.884Z,7.03
2017-11-13T03:42:32.467Z,7.75
2017-11-13T03:45:00.000Z,5.57
2017-11-13T03:47:27.688Z,6.28
2017-11-13T03:49:55.232Z,8.10
2017-11-13T03:52:22.771Z,7.47
2017-11-13T03:54:51.108Z,6.68
2017-11-13T03:57:18.682Z,7.78
2017-11-13T03:59:46.222Z,8.20
2017-11-13T04:02:13.758Z,7.95
2017-11-13T04:04:41.337Z,6.12
2017-11-13T04:07:08.882Z,8.13
2017-11-13T04:09:36.462Z,7.82
2017-11-13T04:12:03.989Z,7.03
2017-11-13T04:14:31.556Z,9.20
2017-11-13T04:16:59.102Z,9.65
2017-11-13T04:19:26.674Z,9.25
2017-11-13T04:21:54.212Z,6.95
2017-11-13T04:24:21.819Z,8.60
2017-11-13T04:26:49.363Z,8.00
2017-11-13T04:29:16.897Z,8.27
2017-11-13T04:31:44.479Z,9.77
2017-11-13T04:34:12.019Z,9.65
2017-11-13T04:36:39.593Z,9.95
2017-11-13T04:39:07.125Z,9.80
2017-11-13T04:41:35.463Z,12.82
2017-11-13T04:44:03.003Z,10.85
2017-11-13T04:46:30.578Z,10.73
2017-11-13T04:48:58.107Z,9.18
2017-11-13T04:51:25.695Z,8.48
2017-11-13T04:53:53.236Z,9.07
2017-11-13T04:56:20.774Z,14.18
2017-11-13T04:58:48.352Z,9.60
2017-11-13T05:01:15.921Z,9.05
2017-11-13T05:03:43.502Z,10.27
2017-11-13T05:06:11.044Z,10.40
2017-11-13T05:08:38.621Z,9.65
2017-11-13T05:11:06.149Z,13.02
2017-11-13T05:13:33.727Z,10.65
2017-11-13T05:16:01.277Z,11.55
2017-11-13T05:18:28.866Z,10.07
2017-11-13T05:20:56.406Z,11.77
2017-11-13T05:23:23.944Z,11.45
2017-11-13T05:25:51.525Z,11.60
2017-11-13T05:28:19.071Z,12.13
2017-11-13T05:30:46.645Z,10.80
2017-11-13T05:33:14.188Z,13.23
2017-11-13T05:35:41.761Z,10.95
2017-11-13T05:38:09.302Z,12.27
2017-11-13T05:40:36.883Z,11.82
2017-11-13T05:43:04.417Z,10.27
2017-11-13T05:45:32.002Z,11.63
2017-11-13T05:47:59.540Z,10.52
2017-11-13T05:50:27.122Z,12.00
2017-11-13T05:52:54.677Z,13.05
2017-11-13T05:55:22.246Z,10.05
2017-11-13T05:57:49.788Z,11.82
2017-11-13T06:00:17.366Z,12.18
2017-11-13T06:02:44.908Z,11.18
2017-11-13T06:05:12.483Z,11.05
2017-11-13T06:07:40.025Z,10.88
2017-11-13T06:10:07.607Z,14.20
2017-11-13T06:12:35.148Z,11.50
2017-11-13T06:15:02.734Z,11.73
2017-11-13T06:17:30.280Z,13.70
2017-11-13T06:19:57.861Z,11.85
2017-11-13T06:22:25.402Z,11.65
2017-11-13T06:24:52.939Z,11.00
2017-11-13T06:27:20.525Z,12.50
2017-11-13T06:29:48.094Z,12.25
2017-11-13T06:32:15.687Z,16.17
2017-11-13T06:34:43.998Z,12.25
2017-11-13T06:37:11.579Z,13.10
2017-11-13T06:39:39.117Z,13.27
2017-11-13T06:42:06.696Z,15.95
2017-11-13T06:44:34.243Z,13.57
2017-11-13T06:47:01.823Z,13.15
2017-11-13T06:49:29.362Z,13.32
2017-11-13T06:51:56.949Z,13.13
2017-11-13T06:54:24.491Z,13.98
2017-11-13T06:56:52.079Z,11.85
2017-11-13T06:59:19.627Z,14.70
2017-11-13T07:01:47.205Z,13.30
2017-11-13T07:04:14.744Z,15.02
2017-11-13T07:06:42.339Z,16.12
2017-11-13T07:09:10.645Z,13.38
2017-11-13T07:11:38.236Z,14.40
2017-11-13T07:14:05.788Z,13.80
2017-11-13T07:16:33.334Z,12.95
2017-11-13T07:19:01.098Z,15.05
2017-11-13T07:21:28.641Z,13.90
2017-11-13T07:23:56.730Z,15.43
2017-11-13T07:26:24.305Z,13.55
2017-11-13T07:28:51.949Z,12.50
2017-11-13T07:31:19.831Z,14.57
2017-11-13T07:33:47.580Z,15.23
2017-11-13T07:36:15.236Z,17.23
2017-11-13T07:38:43.121Z,12.75
2017-11-13T07:41:10.701Z,13.23
2017-11-13T07:43:38.312Z,13.62
2017-11-13T07:46:05.884Z,12.00
2017-11-13T07:48:33.468Z,13.00
2017-11-13T07:51:01.006Z,12.90
2017-11-13T07:53:28.587Z,12.50
2017-11-13T07:55:56.131Z,12.70
2017-11-13T07:58:24.443Z,11.77
2017-11-13T08:00:51.983Z,15.82
2017-11-13T08:03:19.568Z,11.15
2017-11-13T08:05:47.109Z,13.77
2017-11-13T08:08:14.698Z,12.60
2017-11-13T08:10:42.242Z,13.13
2017-11-13T08:13:09.868Z,14.00
2017-11-13T08:15:37.455Z,15.27
2017-11-13T08:18:05.004Z,13.07
2017-11-13T08:20:32.585Z,12.27
2017-11-13T08:23:00.131Z,12.37
2017-11-13T08:25:27.709Z,13.65
2017-11-13T08:27:55.263Z,14.38
2017-11-13T08:30:22.843Z,15.02
2017-11-13T08:32:51.149Z,13.62
2017-11-13T08:35:18.730Z,11.90
2017-11-13T08:37:46.274Z,14.90
2017-11-13T08:40:13.847Z,13.70
2017-11-13T08:42:41.404Z,13.05
2017-11-13T08:45:09.000Z,11.15
2017-11-13T08:47:36.557Z,12.18
2017-11-13T08:50:04.162Z,12.88
2017-11-13T08:52:31.738Z,13.88
2017-11-13T08:54:59.283Z,13.48
2017-11-13T08:57:26.855Z,13.35
2017-11-13T08:59:54.403Z,13.68
2017-11-13T09:02:21.992Z,13.38
2017-11-13T09:04:49.529Z,12.75
2017-11-13T09:07:17.120Z,12.15
2017-11-13T09:09:44.765Z,12.07
2017-11-13T09:12:12.350Z,11.85
2017-11-13T09:14:39.939Z,12.18
2017-11-13T09:17:08.245Z,9.82
2017-11-13T09:19:35.926Z,10.02
2017-11-13T09:22:03.475Z,9.23
2017-11-13T09:24:31.051Z,9.15
2017-11-13T09:26:58.625Z,8.95
2017-11-13T09:29:26.164Z,9.23
2017-11-13T09:31:53.705Z,8.80
2017-11-13T09:34:21.281Z,12.15
2017-11-13T09:36:48.843Z,9.70
2017-11-13T09:39:16.413Z,10.95
2017-11-13T09:41:43.952Z,10.35
2017-11-13T09:44:11.523Z,8.60
2017-11-13T09:46:39.058Z,8.35
2017-11-13T09:49:06.629Z,7.80
2017-11-13T09:51:34.164Z,8.20
2017-11-13T09:54:02.590Z,7.50
2017-11-13T09:56:30.122Z,8.55
2017-11-13T09:58:57.697Z,7.95
2017-11-13T10:01:25.236Z,9.35
2017-11-13T10:03:52.842Z,8.65
2017-11-13T10:06:20.387Z,10.90
2017-11-13T10:08:47.936Z,10.63
2017-11-13T10:11:15.511Z,10.35
2017-11-13T10:13:43.050Z,8.85
2017-11-13T10:16:10.622Z,10.52
2017-11-13T10:18:38.222Z,11.15
2017-11-13T10:21:05.763Z,9.13
2017-11-13T10:23:33.311Z,8.55
2017-11-13T10:26:00.892Z,8.98
2017-11-13T10:28:28.440Z,9.07
2017-11-13T10:30:56.024Z,7.55
2017-11-13T10:33:24.329Z,7.70
2017-11-13T10:35:51.904Z,9.57
2017-11-13T10:38:19.440Z,8.45
2017-11-13T10:40:47.777Z,8.90
2017-11-13T10:43:15.314Z,7.75
2017-11-13T10:45:42.887Z,9.27
2017-11-13T10:48:10.426Z,7.57
2017-11-13T10:50:38.040Z,6.97
2017-11-13T10:53:06.351Z,7.47
2017-11-13T10:55:33.890Z,6.05
2017-11-13T10:58:02.227Z,5.55
2017-11-13T11:00:29.818Z,6.72
2017-11-13T11:02:58.130Z,6.43
2017-11-13T11:05:25.664Z,6.07
2017-11-13T11:07:54.006Z,5.62
2017-11-13T11:10:21.594Z,6.70
2017-11-13T11:12:49.929Z,7.53
2017-11-13T11:15:23.245Z,6.78
2017-11-13T11:18:02.557Z,7.70
2017-11-13T11:20:50.960Z,6.97
2017-11-13T11:23:19.273Z,6.22
2017-11-13T11:25:57.568Z,6.43
2017-11-13T11:28:25.115Z,6.30
2017-11-13T11:31:08.499Z,6.50
2017-11-13T11:33:36.641Z,6.03
2017-11-13T11:36:05.816Z,5.90
2017-11-13T11:38:33.361Z,5.65
2017-11-13T11:41:17.389Z,5.00
2017-11-13T11:43:44.921Z,5.43
2017-11-13T11:46:12.462Z,5.25
2017-11-13T11:48:40.506Z,4.68
2017-11-13T11:51:08.057Z,4.97
2017-11-13T11:53:36.393Z,5.60
2017-11-13T11:56:04.568Z,5.30
2017-11-13T11:58:32.139Z,5.05
2017-11-13T12:00:59.691Z,5.68
2017-11-13T12:03:27.270Z,5.47
2017-11-13T12:05:54.814Z,5.50
2017-11-13T12:08:22.401Z,10.57
2017-11-13T12:10:50.710Z,5.57
2017-11-13T12:13:18.288Z,5.03
2017-11-13T12:15:45.825Z,5.10
2017-11-13T12:18:13.410Z,6.32
2017-11-13T12:20:40.949Z,6.32
2017-11-13T12:23:08.530Z,4.82
2017-11-13T12:25:36.073Z,5.70
2017-11-13T12:28:03.656Z,4.07
2017-11-13T12:30:31.215Z,4.95
2017-11-13T12:32:58.794Z,4.57
2017-11-13T12:35:26.347Z,4.30
2017-11-13T12:37:53.972Z,4.93
2017-11-13T12:40:21.511Z,3.53
2017-11-13T12:42:49.053Z,4.47
2017-11-13T12:45:17.403Z,3.30
2017-11-13T12:47:44.942Z,2.92
2017-11-13T12:50:12.556Z,5.65
2017-11-13T12:52:40.119Z,5.45
2017-11-13T12:55:08.504Z,3.90
2017-11-13T12:57:36.064Z,3.40
2017-11-13T13:00:04.412Z,5.62
2017-11-13T13:02:31.965Z,2.60
2017-11-13T13:04:59.570Z,3.20
2017-11-13T13:07:27.117Z,2.55
2017-11-13T13:09:55.457Z,3.08
2017-11-13T13:12:22.993Z,3.20
2017-11-13T13:14:50.566Z,4.25
2017-11-13T13:17:18.107Z,5.62
2017-11-13T13:19:45.681Z,8.35
2017-11-13T13:22:13.217Z,3.70
2017-11-13T13:24:40.795Z,2.65
2017-11-13T13:27:08.346Z,3.17
2017-11-13T13:29:35.930Z,2.55
2017-11-13T13:32:03.470Z,2.67
2017-11-13T13:34:31.050Z,3.90
2017-11-13T13:36:58.594Z,2.90
2017-11-13T13:39:26.187Z,10.95
2017-11-13T13:41:53.731Z,3.40
2017-11-13T13:44:21.286Z,2.75
2017-11-13T13:46:48.863Z,4.40
2017-11-13T13:49:16.406Z,3.75
2017-11-13T13:51:43.974Z,4.72
2017-11-13T13:54:11.514Z,3.00
2017-11-13T13:56:39.099Z,3.33
2017-11-13T13:59:06.737Z,4.03
2017-11-13T14:01:34.334Z,5.15
2017-11-13T14:04:01.887Z,4.43
2017-11-13T14:06:29.492Z,4.70
2017-11-13T14:08:57.074Z,5.00
2017-11-13T14:11:24.669Z,5.75
2017-11-13T14:13:52.213Z,4.25
2017-11-13T14:16:19.749Z,3.87
2017-11-13T14:18:47.331Z,4.37
2017-11-13T14:21:14.887Z,4.40
2017-11-13T14:23:42.473Z,3.35
2017-11-13T14:26:10.019Z,5.10
2017-11-13T14:28:38.386Z,3.42
2017-11-13T14:31:05.932Z,4.28
2017-11-13T14:33:33.521Z,3.67
2017-11-13T14:36:02.586Z,4.25
2017-11-13T14:38:30.165Z,6.25
2017-11-13T14:40:57.706Z,5.68
2017-11-13T14:43:25.273Z,3.42
2017-11-13T14:45:52.813Z,5.00
2017-11-13T14:48:20.396Z,7.25
2017-11-13T14:50:47.941Z,4.97
2017-11-13T14:53:15.531Z,3.92
2017-11-13T14:55:43.076Z,3.42
2017-11-13T14:58:10.652Z,2.78
2017-11-13T15:00:38.198Z,5.47
2017-11-13T15:03:05.950Z,4.68
2017-11-13T15:05:33.493Z,5.87
2017-11-13T15:08:01.176Z,5.35
2017-11-13T15:10:28.718Z,4.85
2017-11-13T15:12:56.300Z,3.80
2017-11-13T15:15:23.835Z,3.03
2017-11-13T15:17:51.407Z,5.70
2017-11-13T15:20:18.947Z,8.18
2017-11-13T15:22:46.530Z,7.25
2017-11-13T15:25:14.072Z,6.55
2017-11-13T15:27:41.648Z,6.22
2017-11-13T15:30:09.190Z,3.80
2017-11-13T15:32:36.772Z,4.03
2017-11-13T15:35:04.326Z,4.22
2017-11-13T15:37:31.908Z,4.50
2017-11-13T15:39:59.452Z,9.13
2017-11-13T15:42:27.026Z,5.62
2017-11-13T15:44:54.565Z,4.05
2017-11-13T15:47:22.137Z,3.42
2017-11-13T15:49:49.676Z,5.25
2017-11-13T15:52:17.251Z,4.28
2017-11-13T15:54:44.799Z,3.55
2017-11-13T15:57:12.370Z,6.70
2017-11-13T15:59:39.951Z,7.40
2017-11-13T16:02:07.588Z,6.93
2017-11-13T16:04:35.128Z,7.03
2017-11-13T16:07:02.704Z,5.60
2017-11-13T16:09:30.245Z,5.10
2017-11-13T16:11:57.821Z,5.60
2017-11-13T16:14:25.362Z,3.70
2017-11-13T16:16:52.936Z,3.65
2017-11-13T16:19:20.481Z,4.50
2017-11-13T16:21:48.171Z,3.85
2017-11-13T16:24:15.714Z,3.28
2017-11-13T16:26:43.295Z,5.35
2017-11-13T16:29:10.854Z,19.25
2017-11-13T16:31:38.430Z,20.73
2017-11-13T16:34:05.981Z,26.15
2017-11-13T16:36:33.565Z,25.58
2017-11-13T16:39:01.103Z,11.63
2017-11-13T16:41:28.678Z,8.32
2017-11-13T16:43:56.222Z,6.15
2017-11-13T16:46:23.798Z,4.95
2017-11-13T16:48:51.351Z,7.65
2017-11-13T16:51:18.898Z,4.50
2017-11-13T16:53:46.470Z,5.93
2017-11-13T16:56:14.023Z,15.85
2017-11-13T16:58:41.792Z,4.32
2017-11-13T17:01:26.319Z,61.47
2017-11-13T17:03:56.289Z,18.83
2017-11-13T17:06:24.688Z,8.23
2017-11-13T17:08:52.293Z,9.30
2017-11-13T17:11:19.836Z,20.30
2017-11-13T17:13:47.424Z,30.20
2017-11-13T17:16:14.970Z,17.30
2017-11-13T17:18:42.550Z,17.87
2017-11-13T17:21:10.096Z,15.77
2017-11-13T17:23:37.661Z,8.23
2017-11-13T17:26:05.206Z,9.48
2017-11-13T17:28:32.778Z,7.50
2017-11-13T17:31:00.323Z,8.10
2017-11-13T17:33:27.889Z,6.55
2017-11-13T17:35:55.426Z,4.18
2017-11-13T17:38:22.997Z,8.45
2017-11-13T17:40:50.533Z,6.57
2017-11-13T17:43:18.104Z,5.32
2017-11-13T17:45:45.647Z,6.32
2017-11-13T17:48:13.241Z,6.43
2017-11-13T17:50:40.777Z,8.25
2017-11-13T17:53:08.361Z,14.20
2017-11-13T17:55:35.909Z,71.90
2017-11-13T17:58:03.491Z,24.00
2017-11-13T18:00:31.030Z,44.63
2017-11-13T18:02:58.612Z,34.75
2017-11-13T18:05:26.155Z,30.62
2017-11-13T18:07:53.741Z,21.67
2017-11-13T18:10:21.294Z,22.30
2017-11-13T18:12:48.874Z,13.77
2017-11-13T18:15:16.418Z,12.90
2017-11-13T18:17:43.998Z,19.83
2017-11-13T18:20:11.543Z,64.97
2017-11-13T18:22:39.446Z,38.38
2017-11-13T18:25:06.997Z,48.25
2017-11-13T18:27:35.403Z,41.90
2017-11-13T18:30:02.947Z,33.33
2017-11-13T18:32:31.287Z,15.75
2017-11-13T18:34:58.830Z,12.93
2017-11-13T18:37:26.409Z,25.45
2017-11-13T18:39:53.952Z,14.45
2017-11-13T18:42:21.526Z,10.13
2017-11-13T18:44:49.114Z,7.20
2017-11-13T18:47:21.466Z,6.93
2017-11-13T18:49:49.453Z,8.95
2017-11-13T18:52:18.155Z,10.13
2017-11-13T18:54:45.706Z,8.23
2017-11-13T18:57:18.052Z,8.25
2017-11-13T18:59:45.626Z,8.75
2017-11-13T19:02:13.962Z,9.25
2017-11-13T19:04:46.221Z,9.27
2017-11-13T19:07:18.712Z,7.78
2017-11-13T19:09:46.246Z,9.80
2017-11-13T19:12:13.834Z,8.70
2017-11-13T19:14:44.376Z,7.93
2017-11-13T19:17:11.910Z,7.97
2017-11-13T19:19:39.480Z,7.20
2017-11-13T19:22:08.455Z,5.35
2017-11-13T19:24:36.025Z,6.97
2017-11-13T19:27:03.560Z,7.10
2017-11-13T19:29:31.138Z,10.40
2017-11-13T19:31:58.676Z,8.00
2017-11-13T19:34:36.336Z,5.37
2017-11-13T19:37:04.568Z,6.40
2017-11-13T19:39:32.142Z,5.20
2017-11-13T19:42:06.734Z,4.43
2017-11-13T19:44:34.310Z,4.03
2017-11-13T19:47:01.859Z,3.17
2017-11-13T19:49:29.436Z,2.87
2017-11-13T19:51:57.835Z,2.50
2017-11-13T19:54:26.826Z,8.30
2017-11-13T19:56:56.313Z,3.90
2017-11-13T19:59:23.890Z,3.95
2017-11-13T20:01:51.425Z,4.20
2017-11-13T20:04:18.999Z,4.97
2017-11-13T20:06:46.530Z,3.90
2017-11-13T20:09:16.780Z,6.80
2017-11-13T20:11:44.312Z,7.93
2017-11-13T20:14:11.880Z,8.98
2017-11-13T20:16:42.106Z,5.30
2017-11-13T20:19:11.416Z,4.65
2017-11-13T20:21:39.882Z,3.92
2017-11-13T20:24:07.460Z,3.12
2017-11-13T20:26:35.016Z,2.58
2017-11-13T20:29:02.595Z,5.47
2017-11-13T20:31:30.129Z,3.70
2017-11-13T20:33:57.864Z,4.00
2017-11-13T20:36:25.414Z,2.97
2017-11-13T20:38:53.761Z,2.90
2017-11-13T20:41:21.398Z,3.62
2017-11-13T20:43:48.975Z,4.15
2017-11-13T20:46:16.511Z,2.50
2017-11-13T20:48:44.086Z,7.10
2017-11-13T20:51:11.617Z,2.65
2017-11-13T20:53:39.186Z,4.10
2017-11-13T20:56:06.720Z,3.40
2017-11-13T20:58:35.062Z,3.95
2017-11-13T21:01:02.603Z,5.85
2017-11-13T21:03:30.185Z,4.37
2017-11-13T21:05:57.728Z,4.10
2017-11-13T21:08:25.304Z,4.75
2017-11-13T21:10:52.852Z,12.00
2017-11-13T21:13:20.438Z,18.45
2017-11-13T21:15:47.978Z,5.70
2017-11-13T21:18:15.554Z,7.80
2017-11-13T21:20:43.102Z,5.55
2017-11-13T21:23:10.710Z,5.80
2017-11-13T21:25:38.250Z,8.63
2017-11-13T21:28:06.593Z,6.65
2017-11-13T21:30:34.128Z,6.18
2017-11-13T21:33:01.790Z,9.13
2017-11-13T21:35:29.322Z,7.82
2017-11-13T21:37:56.892Z,6.35
2017-11-13T21:40:24.430Z,7.95
2017-11-13T21:42:52.759Z,4.75
2017-11-13T21:45:20.300Z,5.53
2017-11-13T21:47:47.879Z,4.50
2017-11-13T21:50:15.414Z,4.87
2017-11-13T21:52:42.985Z,4.18
2017-11-13T21:55:10.527Z,11.35
2017-11-13T21:57:38.103Z,4.53
2017-11-13T22:00:05.642Z,5.78
2017-11-13T22:02:33.222Z,3.80
2017-11-13T22:05:00.767Z,5.22
2017-11-13T22:07:28.302Z,3.55
2017-11-13T22:09:56.637Z,4.30
2017-11-13T22:12:24.174Z,7.78
2017-11-13T22:14:51.737Z,4.10
2017-11-13T22:17:19.271Z,5.55
2017-11-13T22:19:47.611Z,6.68
2017-11-13T22:22:15.153Z,15.13
2017-11-13T22:24:42.730Z,18.87
2017-11-13T22:27:10.270Z,24.35
2017-11-13T22:29:38.148Z,20.30
2017-11-13T22:32:05.690Z,16.87
2017-11-13T22:34:33.274Z,10.68
2017-11-13T22:37:00.818Z,15.77
2017-11-13T22:39:28.461Z,15.63
2017-11-13T22:41:56.004Z,11.95
2017-11-13T22:44:23.576Z,9.65
2017-11-13T22:46:51.123Z,10.18
2017-11-13T22:49:18.696Z,7.60
2017-11-13T22:51:46.230Z,5.97
2017-11-13T22:54:13.814Z,13.13
2017-11-13T22:56:41.354Z,11.90
2017-11-13T22:59:08.943Z,8.70
2017-11-13T23:01:36.482Z,23.75
2017-11-13T23:04:04.061Z,17.05
2017-11-13T23:06:31.602Z,10.95
2017-11-13T23:08:59.181Z,10.43
2017-11-13T23:11:26.719Z,6.32
2017-11-13T23:13:54.298Z,8.65
2017-11-13T23:16:21.846Z,10.90
2017-11-13T23:18:50.196Z,10.20
2017-11-13T23:21:18.493Z,9.18
2017-11-13T23:23:46.063Z,8.20
2017-11-13T23:26:13.598Z,6.62
2017-11-13T23:28:41.173Z,12.20
2017-11-13T23:31:08.735Z,8.95
2017-11-13T23:33:36.309Z,8.32
2017-11-13T23:36:03.849Z,7.75
2017-11-13T23:38:31.424Z,8.43
2017-11-13T23:40:58.958Z,9.25
2017-11-13T23:43:26.540Z,9.15
2017-11-13T23:45:54.081Z,9.45
2017-11-13T23:48:22.421Z,11.93
2017-11-13T23:50:49.961Z,14.75
2017-11-13T23:53:17.543Z,11.68
2017-11-13T23:55:45.085Z,17.15
2017-11-13T23:58:12.661Z,9.55
